createdAt,value
2022-10-22T00:00:32.403Z,15.90
2022-10-22T00:03:02.946Z,15.90
2022-10-22T00:05:29.833Z,15.90
2022-10-22T00:07:56.734Z,15.80
2022-10-22T00:10:23.667Z,15.80
2022-10-22T00:12:50.465Z,15.80
2022-10-22T00:15:17.617Z,15.80
2022-10-22T00:17:44.601Z,15.70
2022-10-22T00:20:11.643Z,15.80
2022-10-22T00:22:38.466Z,15.70
2022-10-22T00:25:05.470Z,15.70
2022-10-22T00:27:32.352Z,15.70
2022-10-22T00:29:59.236Z,15.60
2022-10-22T00:32:26.034Z,15.60
2022-10-22T00:34:52.988Z,15.60
2022-10-22T00:37:19.840Z,15.60
2022-10-22T00:39:46.690Z,15.60
2022-10-22T00:42:18.077Z,15.60
2022-10-22T00:45:04.484Z,15.60
2022-10-22T00:47:33.022Z,15.60
2022-10-22T00:50:00.833Z,15.60
2022-10-22T00:52:28.626Z,15.60
2022-10-22T00:54:55.633Z,15.60
2022-10-22T00:57:22.787Z,15.50
2022-10-22T00:59:49.931Z,15.50
2022-10-22T01:02:17.293Z,15.50
2022-10-22T01:04:44.965Z,15.50
2022-10-22T01:07:19.267Z,15.40
2022-10-22T01:09:57.121Z,15.40
2022-10-22T01:12:24.711Z,15.50
2022-10-22T01:15:10.643Z,15.50
2022-10-22T01:17:40.683Z,15.40
2022-10-22T01:20:28.016Z,15.40
2022-10-22T01:23:04.074Z,15.40
2022-10-22T01:25:51.129Z,15.40
2022-10-22T01:28:32.202Z,15.40
2022-10-22T01:31:00.195Z,15.40
2022-10-22T01:33:27.527Z,15.40
2022-10-22T01:35:55.351Z,15.40
2022-10-22T01:38:23.526Z,15.40
2022-10-22T01:40:51.356Z,15.30
2022-10-22T01:43:18.221Z,15.30
2022-10-22T01:45:47.492Z,15.30
2022-10-22T01:48:33.124Z,15.30
2022-10-22T01:51:05.941Z,15.30
2022-10-22T01:53:32.788Z,15.20
2022-10-22T01:56:22.685Z,15.20
2022-10-22T01:59:01.994Z,15.20
2022-10-22T02:01:31.609Z,15.20
2022-10-22T02:04:37.123Z,15.20
2022-10-22T02:07:05.603Z,15.20
2022-10-22T02:09:33.921Z,15.20
2022-10-22T02:12:02.151Z,15.20
2022-10-22T02:14:30.102Z,15.10
2022-10-22T02:16:58.024Z,15.10
2022-10-22T02:19:27.116Z,15.10
2022-10-22T02:21:54.785Z,15.10
2022-10-22T02:24:22.237Z,15.00
2022-10-22T02:26:54.918Z,15.00
2022-10-22T02:29:29.025Z,15.00
2022-10-22T02:31:58.221Z,15.00
2022-10-22T02:34:27.769Z,14.90
2022-10-22T02:36:54.908Z,14.90
2022-10-22T02:39:21.870Z,14.90
2022-10-22T02:41:49.042Z,14.90
2022-10-22T02:44:15.950Z,14.90
2022-10-22T02:46:43.572Z,14.90
2022-10-22T02:49:10.420Z,14.80
2022-10-22T02:51:37.294Z,14.80
2022-10-22T02:54:04.410Z,14.80
2022-10-22T02:56:31.246Z,14.80
2022-10-22T02:58:58.066Z,14.80
2022-10-22T03:01:24.906Z,14.70
2022-10-22T03:03:51.745Z,14.70
2022-10-22T03:06:18.806Z,14.70
2022-10-22T03:08:45.781Z,14.60
2022-10-22T03:11:12.745Z,14.60
2022-10-22T03:13:39.653Z,14.60
2022-10-22T03:16:06.634Z,14.60
2022-10-22T03:18:33.547Z,14.60
2022-10-22T03:21:09.987Z,14.60
2022-10-22T03:23:37.437Z,14.60
2022-10-22T03:26:04.728Z,14.50
2022-10-22T03:28:31.626Z,14.60
2022-10-22T03:30:58.468Z,14.60
2022-10-22T03:33:25.357Z,14.60
2022-10-22T03:35:52.241Z,14.60
2022-10-22T03:38:19.218Z,14.70
2022-10-22T03:40:46.382Z,14.70
2022-10-22T03:43:13.443Z,14.70
2022-10-22T03:45:40.420Z,14.70
2022-10-22T03:48:07.315Z,14.80
2022-10-22T03:50:34.260Z,14.80
2022-10-22T03:53:01.127Z,14.90
2022-10-22T03:55:28.087Z,14.90
2022-10-22T03:57:55.164Z,14.90
2022-10-22T04:00:21.982Z,14.90
2022-10-22T04:02:49.109Z,15.00
2022-10-22T04:05:16.064Z,15.00
2022-10-22T04:07:43.061Z,15.00
2022-10-22T04:10:10.225Z,15.00
2022-10-22T04:12:37.127Z,15.00
2022-10-22T04:15:04.563Z,15.10
2022-10-22T04:17:33.935Z,15.10
2022-10-22T04:20:00.768Z,15.10
2022-10-22T04:22:27.612Z,15.20
2022-10-22T04:24:54.462Z,15.20
2022-10-22T04:27:21.577Z,15.20
2022-10-22T04:29:48.463Z,15.30
2022-10-22T04:32:15.561Z,15.30
2022-10-22T04:34:42.429Z,15.30
2022-10-22T04:37:09.300Z,15.30
2022-10-22T04:39:36.191Z,15.40
2022-10-22T04:42:03.990Z,15.40
2022-10-22T04:44:30.831Z,15.40
2022-10-22T04:46:57.771Z,15.40
2022-10-22T04:49:24.810Z,15.40
2022-10-22T04:51:51.662Z,15.40
2022-10-22T04:54:18.594Z,15.50
2022-10-22T04:56:45.368Z,15.50
2022-10-22T04:59:13.174Z,15.50
2022-10-22T05:01:42.865Z,15.50
2022-10-22T05:04:15.522Z,15.40
2022-10-22T05:06:42.762Z,15.50
2022-10-22T05:09:17.521Z,15.50
2022-10-22T05:11:49.018Z,15.40
2022-10-22T05:14:17.609Z,15.40
2022-10-22T05:19:16.651Z,15.50
2022-10-22T05:21:43.570Z,15.50
2022-10-22T05:24:10.544Z,15.40
2022-10-22T05:26:37.786Z,15.40
2022-10-22T05:29:04.618Z,15.40
2022-10-22T05:31:31.489Z,15.40
2022-10-22T05:33:58.397Z,15.40
2022-10-22T05:36:25.326Z,15.40
2022-10-22T05:38:52.286Z,15.40
2022-10-22T05:41:20.973Z,15.40
2022-10-22T05:43:47.953Z,15.30
2022-10-22T05:46:19.966Z,15.30
2022-10-22T05:48:51.340Z,15.30
2022-10-22T05:51:18.787Z,15.30
2022-10-22T05:53:45.722Z,15.30
2022-10-22T05:56:13.824Z,15.30
2022-10-22T05:58:40.830Z,15.20
2022-10-22T06:01:09.219Z,15.30
2022-10-22T06:03:36.102Z,15.20
2022-10-22T06:06:05.674Z,15.20
2022-10-22T06:08:32.893Z,15.20
2022-10-22T06:10:59.869Z,15.20
2022-10-22T06:13:26.762Z,15.20
2022-10-22T06:15:53.860Z,15.20
2022-10-22T06:18:20.780Z,15.30
2022-10-22T06:20:47.843Z,15.20
2022-10-22T06:23:15.506Z,15.30
2022-10-22T06:25:42.802Z,15.30
2022-10-22T06:28:09.840Z,15.30
2022-10-22T06:30:37.636Z,15.30
2022-10-22T06:33:04.525Z,15.30
2022-10-22T06:35:31.571Z,15.30
2022-10-22T06:37:58.515Z,15.30
2022-10-22T06:43:07.074Z,15.40
2022-10-22T06:45:34.097Z,15.50
2022-10-22T06:48:00.958Z,15.50
2022-10-22T06:50:27.902Z,15.50
2022-10-22T06:52:54.847Z,15.50
2022-10-22T06:55:22.292Z,15.50
2022-10-22T06:57:49.222Z,15.50
2022-10-22T07:00:16.269Z,15.60
2022-10-22T07:02:43.460Z,15.60
2022-10-22T07:05:10.499Z,15.60
2022-10-22T07:07:37.306Z,15.60
2022-10-22T07:10:04.802Z,15.60
2022-10-22T07:12:33.801Z,15.70
2022-10-22T07:15:00.696Z,15.70
2022-10-22T07:17:27.569Z,15.70
2022-10-22T07:19:54.408Z,15.80
2022-10-22T07:22:21.838Z,15.80
2022-10-22T07:24:48.784Z,15.80
2022-10-22T07:27:15.748Z,15.80
2022-10-22T07:29:42.588Z,15.90
2022-10-22T07:32:09.414Z,15.90
2022-10-22T07:34:37.627Z,15.90
2022-10-22T07:37:06.343Z,15.90
2022-10-22T07:39:33.212Z,16.00
2022-10-22T07:42:00.077Z,16.00
2022-10-22T07:44:27.301Z,16.00
2022-10-22T07:46:54.214Z,16.10
2022-10-22T07:49:21.007Z,16.10
2022-10-22T07:51:47.936Z,16.10
2022-10-22T07:54:14.863Z,16.10
2022-10-22T07:56:41.742Z,16.10
2022-10-22T07:59:08.580Z,16.20
2022-10-22T08:01:35.982Z,16.20
2022-10-22T08:04:02.852Z,16.20
2022-10-22T08:06:29.906Z,16.30
2022-10-22T08:08:56.910Z,16.40
2022-10-22T08:11:23.799Z,16.40
2022-10-22T08:13:50.737Z,16.50
2022-10-22T08:16:17.572Z,16.50
2022-10-22T08:18:44.445Z,16.60
2022-10-22T08:21:12.310Z,16.70
2022-10-22T08:23:39.340Z,16.70
2022-10-22T08:26:06.497Z,16.80
2022-10-22T08:28:37.213Z,16.80
2022-10-22T08:31:05.890Z,16.90
2022-10-22T08:33:32.808Z,16.90
2022-10-22T08:35:59.918Z,17.00
2022-10-22T08:38:26.820Z,17.10
2022-10-22T08:40:55.234Z,17.10
2022-10-22T08:43:26.866Z,17.20
2022-10-22T08:45:59.561Z,17.20
2022-10-22T08:48:26.429Z,17.30
2022-10-22T08:50:56.248Z,17.40
2022-10-22T08:53:27.766Z,17.40
2022-10-22T08:55:54.591Z,17.30
2022-10-22T08:58:36.101Z,17.40
2022-10-22T09:01:05.976Z,17.40
2022-10-22T09:03:52.715Z,17.50
2022-10-22T09:06:26.533Z,17.50
2022-10-22T09:08:54.181Z,17.50
2022-10-22T09:11:21.041Z,17.50
2022-10-22T09:13:48.561Z,17.60
2022-10-22T09:16:24.395Z,17.60
2022-10-22T09:18:51.241Z,17.60
2022-10-22T09:21:24.903Z,17.60
2022-10-22T09:23:58.084Z,17.70
2022-10-22T09:26:25.648Z,17.70
2022-10-22T09:28:52.653Z,17.70
2022-10-22T09:31:19.568Z,17.70
2022-10-22T09:33:49.038Z,17.80
2022-10-22T09:36:17.106Z,17.90
2022-10-22T09:38:48.627Z,18.00
2022-10-22T09:41:15.936Z,18.10
2022-10-22T09:43:42.834Z,18.20
2022-10-22T09:46:17.894Z,18.20
2022-10-22T09:48:50.421Z,18.20
2022-10-22T09:51:22.100Z,18.30
2022-10-22T09:53:59.236Z,18.30
2022-10-22T09:56:26.116Z,18.40
2022-10-22T09:58:53.085Z,18.40
2022-10-22T10:01:22.754Z,18.50
2022-10-22T10:03:50.031Z,18.50
2022-10-22T10:06:21.115Z,18.60
2022-10-22T10:08:48.601Z,18.70
2022-10-22T10:11:35.751Z,18.80
2022-10-22T10:14:02.708Z,18.70
2022-10-22T10:16:29.671Z,18.70
2022-10-22T10:18:56.495Z,18.70
2022-10-22T10:21:47.006Z,18.80
2022-10-22T10:24:29.108Z,18.80
2022-10-22T10:27:02.849Z,18.70
2022-10-22T10:32:37.202Z,18.70
2022-10-22T10:35:07.102Z,18.80
2022-10-22T10:40:40.856Z,18.80
2022-10-22T10:43:13.654Z,18.90
2022-10-22T10:45:49.517Z,19.00
2022-10-22T10:48:23.919Z,19.10
2022-10-22T10:50:58.612Z,19.20
2022-10-22T10:53:28.355Z,19.30
2022-10-22T10:56:04.054Z,19.40
2022-10-22T10:58:35.633Z,19.50
2022-10-22T11:01:05.495Z,19.60
2022-10-22T11:03:43.963Z,19.70
2022-10-22T11:06:12.612Z,19.80
2022-10-22T11:08:50.305Z,19.90
2022-10-22T11:11:19.954Z,19.90
2022-10-22T11:13:46.887Z,20.00
2022-10-22T11:16:35.447Z,20.00
2022-10-22T11:19:06.320Z,19.90
2022-10-22T11:22:05.376Z,19.90
2022-10-22T11:24:47.987Z,20.00
2022-10-22T11:27:17.724Z,20.00
2022-10-22T11:29:52.526Z,20.10
2022-10-22T11:32:20.491Z,20.10
2022-10-22T11:34:49.618Z,20.20
2022-10-22T11:37:16.979Z,20.20
2022-10-22T11:39:53.948Z,20.20
2022-10-22T11:42:44.862Z,20.20
2022-10-22T11:45:14.640Z,20.20
2022-10-22T11:47:56.558Z,20.20
2022-10-22T11:50:27.520Z,20.20
2022-10-22T11:53:01.389Z,20.20
2022-10-22T11:55:31.498Z,20.10
2022-10-22T11:58:00.375Z,20.10
2022-10-22T12:00:48.229Z,20.00
2022-10-22T12:03:17.216Z,20.10
2022-10-22T12:05:44.828Z,20.10
2022-10-22T12:08:17.784Z,20.20
2022-10-22T12:10:50.583Z,20.10
2022-10-22T12:13:53.021Z,20.10
2022-10-22T12:16:32.219Z,20.10
2022-10-22T12:19:26.131Z,20.10
2022-10-22T12:21:57.885Z,20.10
2022-10-22T12:24:26.175Z,20.10
2022-10-22T12:26:53.198Z,20.10
2022-10-22T12:29:23.875Z,20.20
2022-10-22T12:31:50.919Z,20.30
2022-10-22T12:34:19.003Z,20.40
2022-10-22T12:36:47.062Z,20.50
2022-10-22T12:39:21.646Z,20.60
2022-10-22T12:41:48.749Z,20.60
2022-10-22T12:44:17.181Z,20.60
2022-10-22T12:46:45.237Z,20.60
2022-10-22T12:49:18.060Z,20.70
2022-10-22T12:51:45.490Z,20.70
2022-10-22T12:54:28.990Z,20.70
2022-10-22T12:56:56.500Z,20.70
2022-10-22T12:59:33.214Z,20.70
2022-10-22T13:02:00.127Z,20.70
2022-10-22T13:04:31.783Z,20.60
2022-10-22T13:07:21.298Z,20.60
2022-10-22T13:09:51.168Z,20.70
2022-10-22T13:12:25.458Z,20.70
2022-10-22T13:14:54.557Z,20.80
2022-10-22T13:17:37.781Z,20.90
2022-10-22T13:20:14.672Z,21.10
2022-10-22T13:22:42.563Z,21.30
2022-10-22T13:25:16.154Z,21.40
2022-10-22T13:27:43.800Z,21.60
2022-10-22T13:30:22.442Z,21.70
2022-10-22T13:32:53.666Z,21.90
2022-10-22T13:35:22.143Z,22.00
2022-10-22T13:37:49.313Z,22.00
2022-10-22T13:40:16.347Z,22.00
2022-10-22T13:42:43.723Z,22.10
2022-10-22T13:45:10.907Z,22.20
2022-10-22T13:47:37.764Z,22.10
2022-10-22T13:50:07.574Z,22.20
2022-10-22T13:52:36.059Z,22.00
2022-10-22T13:55:12.406Z,22.00
2022-10-22T13:57:39.394Z,21.90
2022-10-22T14:00:06.574Z,22.00
2022-10-22T14:02:33.432Z,22.10
2022-10-22T14:05:03.454Z,22.10
2022-10-22T14:07:30.324Z,22.20
2022-10-22T14:09:57.168Z,22.30
2022-10-22T14:12:25.326Z,22.30
2022-10-22T14:14:52.600Z,22.40
2022-10-22T14:17:19.478Z,22.40
2022-10-22T14:19:48.595Z,22.40
2022-10-22T14:22:19.127Z,22.40
2022-10-22T14:24:46.595Z,22.40
2022-10-22T14:27:14.588Z,22.40
2022-10-22T14:29:41.493Z,22.20
2022-10-22T14:32:12.880Z,22.10
2022-10-22T14:34:40.829Z,22.00
2022-10-22T14:37:14.105Z,21.90
2022-10-22T14:39:40.955Z,21.80
2022-10-22T14:42:09.455Z,21.80
2022-10-22T14:44:36.318Z,21.70
2022-10-22T14:47:03.209Z,21.60
2022-10-22T14:49:30.030Z,21.50
2022-10-22T14:51:56.931Z,21.50
2022-10-22T14:54:23.877Z,21.40
2022-10-22T14:56:50.739Z,21.30
2022-10-22T14:59:17.589Z,21.30
2022-10-22T15:01:44.403Z,21.20
2022-10-22T15:04:11.696Z,21.20
2022-10-22T15:06:38.601Z,21.20
2022-10-22T15:09:05.566Z,21.20
2022-10-22T15:11:32.454Z,21.20
2022-10-22T15:13:59.457Z,21.20
2022-10-22T15:16:26.293Z,21.20
2022-10-22T15:18:55.911Z,21.20
2022-10-22T15:21:23.223Z,21.20
2022-10-22T15:23:50.095Z,21.30
2022-10-22T15:26:17.560Z,21.20
2022-10-22T15:28:44.405Z,21.20
2022-10-22T15:31:12.840Z,21.20
2022-10-22T15:33:41.180Z,21.10
2022-10-22T15:36:15.676Z,21.00
2022-10-22T15:38:42.619Z,20.90
2022-10-22T15:41:11.060Z,20.80
2022-10-22T15:43:37.949Z,20.80
2022-10-22T15:46:09.389Z,20.80
2022-10-22T15:48:36.299Z,20.80
2022-10-22T15:51:07.571Z,20.70
2022-10-22T15:53:34.406Z,20.70
2022-10-22T15:56:01.244Z,20.50
2022-10-22T15:58:28.107Z,20.50
2022-10-22T16:00:55.003Z,20.40
2022-10-22T16:03:21.899Z,20.40
2022-10-22T16:05:54.575Z,20.20
2022-10-22T16:08:21.576Z,20.20
2022-10-22T16:10:48.764Z,20.00
2022-10-22T16:13:15.898Z,19.90
2022-10-22T16:15:42.957Z,19.70
2022-10-22T16:18:09.767Z,19.60
2022-10-22T16:20:40.286Z,19.50
2022-10-22T16:23:07.260Z,19.40
2022-10-22T16:25:40.863Z,19.40
2022-10-22T16:28:08.706Z,19.30
2022-10-22T16:30:36.713Z,19.30
2022-10-22T16:33:04.052Z,19.20
2022-10-22T16:35:31.467Z,19.00
2022-10-22T16:37:58.359Z,18.90
2022-10-22T16:40:25.306Z,18.70
2022-10-22T16:42:52.353Z,18.60
2022-10-22T16:45:19.211Z,18.50
2022-10-22T16:47:47.166Z,18.40
2022-10-22T16:50:14.121Z,18.40
2022-10-22T16:52:40.973Z,18.30
2022-10-22T16:55:08.181Z,18.30
2022-10-22T16:57:36.174Z,18.20
2022-10-22T17:00:04.622Z,18.20
2022-10-22T17:02:31.822Z,18.20
2022-10-22T17:04:58.709Z,18.10
2022-10-22T17:07:25.607Z,18.10
2022-10-22T17:09:52.743Z,18.00
2022-10-22T17:12:19.583Z,18.00
2022-10-22T17:14:46.465Z,18.00
2022-10-22T17:17:13.262Z,18.00
2022-10-22T17:19:40.168Z,17.80
2022-10-22T17:22:07.064Z,17.80
2022-10-22T17:24:33.904Z,17.70
2022-10-22T17:27:00.768Z,17.70
2022-10-22T17:29:27.684Z,17.70
2022-10-22T17:31:54.637Z,17.70
2022-10-22T17:34:21.537Z,17.70
2022-10-22T17:36:48.424Z,17.60
2022-10-22T17:39:18.167Z,17.60
2022-10-22T17:41:46.120Z,17.50
2022-10-22T17:44:13.938Z,17.50
2022-10-22T17:46:40.816Z,17.50
2022-10-22T17:49:20.648Z,17.50
2022-10-22T17:51:47.615Z,17.50
2022-10-22T17:54:14.553Z,17.40
2022-10-22T17:56:41.474Z,17.40
2022-10-22T17:59:08.860Z,17.40
2022-10-22T18:01:37.882Z,17.40
2022-10-22T18:04:05.888Z,17.40
2022-10-22T18:06:33.251Z,17.40
2022-10-22T18:09:00.298Z,17.30
2022-10-22T18:11:28.261Z,17.30
2022-10-22T18:13:56.514Z,17.20
2022-10-22T18:16:23.922Z,17.20
2022-10-22T18:18:53.163Z,17.20
2022-10-22T18:21:20.339Z,17.20
2022-10-22T18:23:47.289Z,17.10
2022-10-22T18:26:14.628Z,17.10
2022-10-22T18:28:41.603Z,17.10
2022-10-22T18:31:09.514Z,17.10
2022-10-22T18:33:37.218Z,17.00
2022-10-22T18:36:09.084Z,17.00
2022-10-22T18:38:38.320Z,17.00
2022-10-22T18:41:09.319Z,17.00
2022-10-22T18:43:36.904Z,16.90
2022-10-22T18:46:06.092Z,16.90
2022-10-22T18:48:32.947Z,16.90
2022-10-22T18:51:01.571Z,16.90
2022-10-22T18:53:28.508Z,16.80
2022-10-22T18:55:55.693Z,16.80
2022-10-22T18:58:22.667Z,16.80
2022-10-22T19:00:50.038Z,16.80
2022-10-22T19:03:17.343Z,16.70
2022-10-22T19:05:48.747Z,16.70
2022-10-22T19:08:18.281Z,16.70
2022-10-22T19:10:48.451Z,16.70
2022-10-22T19:13:16.957Z,16.60
2022-10-22T19:15:44.051Z,16.60
2022-10-22T19:18:11.686Z,16.50
2022-10-22T19:20:38.616Z,16.50
2022-10-22T19:23:06.131Z,16.40
2022-10-22T19:25:33.190Z,16.40
2022-10-22T19:28:00.098Z,16.40
2022-10-22T19:30:27.014Z,16.40
2022-10-22T19:32:53.898Z,16.30
2022-10-22T19:35:20.750Z,16.30
2022-10-22T19:37:48.639Z,16.30
2022-10-22T19:40:15.709Z,16.30
2022-10-22T19:42:44.681Z,16.20
2022-10-22T19:45:11.805Z,16.20
2022-10-22T19:47:38.890Z,16.20
2022-10-22T19:50:06.136Z,16.10
2022-10-22T19:52:33.660Z,16.10
2022-10-22T19:55:00.554Z,16.10
2022-10-22T19:57:27.351Z,16.10
2022-10-22T19:59:54.192Z,16.10
2022-10-22T20:02:21.148Z,16.00
2022-10-22T20:04:49.854Z,15.90
2022-10-22T20:07:17.329Z,16.00
2022-10-22T20:09:44.168Z,16.00
2022-10-22T20:12:10.991Z,15.90
2022-10-22T20:14:37.930Z,16.00
2022-10-22T20:17:04.961Z,15.90
2022-10-22T20:19:32.771Z,15.90
2022-10-22T20:24:26.377Z,15.90
2022-10-22T20:26:53.534Z,15.90
2022-10-22T20:29:20.426Z,15.90
2022-10-22T20:31:47.330Z,15.90
2022-10-22T20:34:14.397Z,15.80
2022-10-22T20:36:41.264Z,15.80
2022-10-22T20:39:09.222Z,15.80
2022-10-22T20:41:37.972Z,15.80
2022-10-22T20:44:05.018Z,15.80
2022-10-22T20:46:32.413Z,15.70
2022-10-22T20:49:03.880Z,15.70
2022-10-22T20:51:33.495Z,15.70
2022-10-22T20:54:00.636Z,15.70
2022-10-22T20:56:28.295Z,15.70
2022-10-22T21:01:31.755Z,15.70
2022-10-22T21:03:58.753Z,15.60
2022-10-22T21:06:25.698Z,15.60
2022-10-22T21:08:52.601Z,15.60
2022-10-22T21:11:19.647Z,15.60
2022-10-22T21:13:46.692Z,15.60
2022-10-22T21:16:14.775Z,15.60
2022-10-22T21:18:41.775Z,15.60
2022-10-22T21:21:09.109Z,15.60
2022-10-22T21:23:36.815Z,15.60
2022-10-22T21:26:04.003Z,15.70
2022-10-22T21:28:32.654Z,15.80
2022-10-22T21:30:59.459Z,15.90
2022-10-22T21:33:26.334Z,16.10
2022-10-22T21:35:55.813Z,16.20
2022-10-22T21:38:23.925Z,16.30
2022-10-22T21:40:51.108Z,16.40
2022-10-22T21:43:18.280Z,16.40
2022-10-22T21:45:45.471Z,16.50
2022-10-22T21:48:12.906Z,16.60
2022-10-22T21:50:40.980Z,16.60
2022-10-22T21:53:08.430Z,16.60
2022-10-22T21:55:39.172Z,16.70
2022-10-22T21:58:06.487Z,16.70
2022-10-22T22:00:33.567Z,16.80
2022-10-22T22:03:00.609Z,16.80
2022-10-22T22:05:28.249Z,16.90
2022-10-22T22:07:55.080Z,16.90
2022-10-22T22:10:22.014Z,17.00
2022-10-22T22:12:50.951Z,17.00
2022-10-22T22:15:18.744Z,17.00
2022-10-22T22:17:45.656Z,17.00
2022-10-22T22:20:12.715Z,17.00
2022-10-22T22:22:39.891Z,17.00
2022-10-22T22:25:07.186Z,17.00
2022-10-22T22:27:34.579Z,17.00
2022-10-22T22:30:01.522Z,17.00
2022-10-22T22:32:28.344Z,17.00
2022-10-22T22:34:55.162Z,17.00
2022-10-22T22:37:22.039Z,17.00
2022-10-22T22:39:48.975Z,16.90
2022-10-22T22:42:15.867Z,17.00
2022-10-22T22:44:42.714Z,16.90
2022-10-22T22:47:09.525Z,16.90
2022-10-22T22:49:37.121Z,16.90
2022-10-22T22:52:04.416Z,16.90
2022-10-22T22:54:31.507Z,16.90
2022-10-22T22:56:58.405Z,16.90
2022-10-22T22:59:25.247Z,16.80
2022-10-22T23:01:52.531Z,16.80
2022-10-22T23:04:23.025Z,16.80
2022-10-22T23:06:50.383Z,16.80
2022-10-22T23:09:18.188Z,16.80
2022-10-22T23:11:45.814Z,16.70
2022-10-22T23:14:14.899Z,16.70
2022-10-22T23:16:46.758Z,16.70
2022-10-22T23:19:15.028Z,16.60
2022-10-22T23:21:44.740Z,16.50
2022-10-22T23:24:13.436Z,16.50
2022-10-22T23:26:42.217Z,16.50
2022-10-22T23:29:11.825Z,16.50
2022-10-22T23:31:38.830Z,16.50
2022-10-22T23:34:06.738Z,16.50
2022-10-22T23:36:34.321Z,16.50
2022-10-22T23:39:03.477Z,16.40
2022-10-22T23:41:30.341Z,16.40
2022-10-22T23:43:57.459Z,16.40
2022-10-22T23:46:24.345Z,16.40
2022-10-22T23:48:51.326Z,16.30
2022-10-22T23:51:18.119Z,16.30
2022-10-22T23:53:45.675Z,16.30
2022-10-22T23:56:17.394Z,16.30
2022-10-22T23:58:44.687Z,16.20
